FAB79 SBTE-SBFZ
Flight info
| Callsign | FAB79 |
|---|---|
| Flight time | 0h 33m |
| Altitude | 7000 |
| Route | EREJO DCT DOTKU |
| Aircraft | F5/L-SDFGR/C |
Departure
| Time | 2026-04-26 20:57 |
|---|---|
| Airport | Senador Petrônio Portela Airport (SBTE) |
Arrival
| Time | 2026-04-26 21:31 |
|---|---|
| Airport | Pinto Martins International Airport (SBFZ) |
| Time | Latitude | Longitude | Altitude | Speed | Heading |
|---|---|---|---|---|---|
| 2026-04-26 20:53 | -5.06427 | -42.82200 | 226 ft | 0 kts | 76° |
| 2026-04-26 20:54 | -5.06422 | -42.82197 | 226 ft | 3 kts | 0° |
| 2026-04-26 20:54 | -5.06355 | -42.82209 | 226 ft | 17 kts | 354° |
| 2026-04-26 20:54 | -5.06291 | -42.82264 | 226 ft | 0 kts | 270° |
| 2026-04-26 20:54 | -5.06291 | -42.82301 | 226 ft | 10 kts | 270° |
| 2026-04-26 20:55 | -5.06291 | -42.82329 | 226 ft | 8 kts | 258° |
| 2026-04-26 20:55 | -5.06373 | -42.82327 | 226 ft | 19 kts | 174° |
| 2026-04-26 20:55 | -5.06546 | -42.82313 | 225 ft | 23 kts | 170° |
| 2026-04-26 20:55 | -5.06633 | -42.82307 | 226 ft | 9 kts | 210° |
| 2026-04-26 20:56 | -5.06646 | -42.82302 | 226 ft | 8 kts | 9° |
| 2026-04-26 20:56 | -5.06611 | -42.82306 | 226 ft | 0 kts | 352° |
| 2026-04-26 20:57 | -5.06406 | -42.82329 | 226 ft | 128 kts | 0° |
| 2026-04-26 20:57 | -5.04516 | -42.82406 | 1046 ft | 417 kts | 358° |
| 2026-04-26 20:57 | -5.00768 | -42.82571 | 5416 ft | 676 kts | 356° |
| 2026-04-26 20:58 | -4.95470 | -42.82348 | 9838 ft | 786 kts | 7° |
| 2026-04-26 20:58 | -4.90124 | -42.80791 | 13022 ft | 815 kts | 21° |
| 2026-04-26 20:58 | -4.85195 | -42.78030 | 14859 ft | 812 kts | 33° |
| 2026-04-26 20:58 | -4.80910 | -42.74348 | 15585 ft | 820 kts | 44° |
| 2026-04-26 20:59 | -4.77319 | -42.69982 | 15569 ft | 805 kts | 53° |
| 2026-04-26 20:59 | -4.74225 | -42.65341 | 15416 ft | 796 kts | 56° |
| 2026-04-26 20:59 | -4.71230 | -42.60703 | 15480 ft | 789 kts | 56° |
| 2026-04-26 20:59 | -4.68281 | -42.56040 | 14966 ft | 791 kts | 57° |
| 2026-04-26 21:00 | -4.65383 | -42.51336 | 14283 ft | 795 kts | 58° |
| 2026-04-26 21:00 | -4.62601 | -42.46564 | 14092 ft | 792 kts | 59° |
| 2026-04-26 21:00 | -4.60035 | -42.41654 | 13519 ft | 796 kts | 63° |
| 2026-04-26 21:00 | -4.57901 | -42.36502 | 12422 ft | 802 kts | 70° |
| 2026-04-26 21:01 | -4.55993 | -42.31349 | 11701 ft | 774 kts | 69° |
| 2026-04-26 21:01 | -4.54144 | -42.26356 | 11297 ft | 756 kts | 69° |
| 2026-04-26 21:01 | -4.52360 | -42.21452 | 11182 ft | 743 kts | 69° |
| 2026-04-26 21:01 | -4.50631 | -42.16620 | 11356 ft | 732 kts | 70° |
| 2026-04-26 21:02 | -4.48941 | -42.11837 | 11716 ft | 724 kts | 70° |
| 2026-04-26 21:02 | -4.47284 | -42.07093 | 12163 ft | 718 kts | 70° |
| 2026-04-26 21:02 | -4.45653 | -42.02378 | 12609 ft | 714 kts | 70° |
| 2026-04-26 21:02 | -4.44037 | -41.97676 | 12989 ft | 712 kts | 70° |
| 2026-04-26 21:03 | -4.42435 | -41.92983 | 13261 ft | 713 kts | 70° |
| 2026-04-26 21:03 | -4.40832 | -41.88267 | 13417 ft | 714 kts | 70° |
| 2026-04-26 21:03 | -4.39234 | -41.83544 | 13469 ft | 716 kts | 71° |
| 2026-04-26 21:03 | -4.37637 | -41.78811 | 13543 ft | 714 kts | 71° |
| 2026-04-26 21:04 | -4.36050 | -41.74096 | 13693 ft | 715 kts | 71° |
| 2026-04-26 21:04 | -4.34465 | -41.69375 | 13763 ft | 716 kts | 71° |
| 2026-04-26 21:04 | -4.32875 | -41.64632 | 13720 ft | 718 kts | 71° |
| 2026-04-26 21:04 | -4.31288 | -41.59892 | 13657 ft | 719 kts | 71° |
| 2026-04-26 21:05 | -4.29694 | -41.55128 | 13636 ft | 719 kts | 71° |
| 2026-04-26 21:05 | -4.28108 | -41.50379 | 13686 ft | 719 kts | 71° |
| 2026-04-26 21:05 | -4.26525 | -41.45638 | 13813 ft | 717 kts | 71° |
| 2026-04-26 21:05 | -4.24974 | -41.40900 | 14001 ft | 716 kts | 72° |
| 2026-04-26 21:06 | -4.23588 | -41.36097 | 13995 ft | 717 kts | 73° |
| 2026-04-26 21:06 | -4.22356 | -41.31299 | 13749 ft | 722 kts | 77° |
| 2026-04-26 21:06 | -4.21492 | -41.26313 | 13170 ft | 728 kts | 81° |
| 2026-04-26 21:06 | -4.20782 | -41.21292 | 12946 ft | 728 kts | 82° |
| 2026-04-26 21:07 | -4.20184 | -41.16265 | 13212 ft | 721 kts | 83° |
| 2026-04-26 21:07 | -4.19648 | -41.11259 | 12453 ft | 728 kts | 83° |
| 2026-04-26 21:07 | -4.19041 | -41.06185 | 10996 ft | 737 kts | 83° |
| 2026-04-26 21:07 | -4.18466 | -41.01073 | 9273 ft | 744 kts | 83° |
| 2026-04-26 21:08 | -4.17894 | -40.95900 | 7731 ft | 747 kts | 84° |
| 2026-04-26 21:08 | -4.17376 | -40.90734 | 6882 ft | 743 kts | 84° |
| 2026-04-26 21:08 | -4.16908 | -40.85655 | 6804 ft | 732 kts | 85° |
| 2026-04-26 21:08 | -4.16476 | -40.80609 | 7371 ft | 719 kts | 85° |
| 2026-04-26 21:09 | -4.16081 | -40.75696 | 8147 ft | 712 kts | 85° |
| 2026-04-26 21:09 | -4.15696 | -40.70691 | 7802 ft | 705 kts | 85° |
| 2026-04-26 21:09 | -4.15343 | -40.65890 | 7640 ft | 677 kts | 85° |
| 2026-04-26 21:09 | -4.15017 | -40.61272 | 8084 ft | 656 kts | 86° |
| 2026-04-26 21:10 | -4.14709 | -40.56765 | 8710 ft | 638 kts | 86° |
| 2026-04-26 21:10 | -4.14524 | -40.53981 | 8659 ft | 556 kts | 86° |
| 2026-04-26 21:10 | -4.14297 | -40.50494 | 8463 ft | 459 kts | 86° |
| 2026-04-26 21:10 | -4.14109 | -40.47504 | 8343 ft | 404 kts | 86° |
| 2026-04-26 21:11 | -4.13945 | -40.44835 | 8230 ft | 366 kts | 86° |
| 2026-04-26 21:11 | -4.13797 | -40.42384 | 8169 ft | 339 kts | 86° |
| 2026-04-26 21:11 | -4.13653 | -40.39979 | 8067 ft | 362 kts | 86° |
| 2026-04-26 21:11 | -4.13506 | -40.37361 | 8209 ft | 394 kts | 87° |
| 2026-04-26 21:12 | -4.13389 | -40.34475 | 7949 ft | 435 kts | 88° |
| 2026-04-26 21:12 | -4.13301 | -40.31403 | 8685 ft | 445 kts | 88° |
| 2026-04-26 21:12 | -4.13230 | -40.28089 | 8962 ft | 572 kts | 89° |
| 2026-04-26 21:12 | -4.13140 | -40.23074 | 9004 ft | 789 kts | 89° |
| 2026-04-26 21:13 | -4.13068 | -40.18381 | 8893 ft | 581 kts | 89° |
| 2026-04-26 21:13 | -4.13020 | -40.14711 | 8235 ft | 485 kts | 89° |
| 2026-04-26 21:13 | -4.12985 | -40.11527 | 7784 ft | 432 kts | 89° |
| 2026-04-26 21:13 | -4.12961 | -40.08776 | 8267 ft | 358 kts | 89° |
| 2026-04-26 21:14 | -4.12943 | -40.06438 | 8694 ft | 318 kts | 89° |
| 2026-04-26 21:14 | -4.12894 | -40.04288 | 8295 ft | 299 kts | 87° |
| 2026-04-26 21:14 | -4.12767 | -40.02271 | 7844 ft | 283 kts | 85° |
| 2026-04-26 21:14 | -4.12618 | -40.00339 | 7334 ft | 270 kts | 85° |
| 2026-04-26 21:15 | -4.12419 | -39.98584 | 7203 ft | 240 kts | 82° |
| 2026-04-26 21:15 | -4.12184 | -39.96952 | 6825 ft | 234 kts | 81° |
| 2026-04-26 21:15 | -4.11941 | -39.95387 | 6540 ft | 223 kts | 80° |
| 2026-04-26 21:15 | -4.11677 | -39.93734 | 6393 ft | 304 kts | 79° |
| 2026-04-26 21:16 | -4.11268 | -39.91280 | 6750 ft | 383 kts | 80° |
| 2026-04-26 21:16 | -4.10817 | -39.88599 | 7670 ft | 393 kts | 80° |
| 2026-04-26 21:16 | -4.10368 | -39.85940 | 9303 ft | 378 kts | 80° |
| 2026-04-26 21:16 | -4.09945 | -39.83430 | 11239 ft | 352 kts | 80° |
| 2026-04-26 21:17 | -4.09518 | -39.80899 | 11509 ft | 388 kts | 80° |
| 2026-04-26 21:17 | -4.09100 | -39.78148 | 11662 ft | 418 kts | 84° |
| 2026-04-26 21:17 | -4.08937 | -39.75067 | 11137 ft | 460 kts | 88° |
| 2026-04-26 21:17 | -4.08845 | -39.71727 | 10984 ft | 504 kts | 88° |
| 2026-04-26 21:18 | -4.08739 | -39.68078 | 10470 ft | 541 kts | 88° |
| 2026-04-26 21:18 | -4.08626 | -39.64462 | 10385 ft | 461 kts | 88° |
| 2026-04-26 21:18 | -4.08521 | -39.61462 | 10241 ft | 414 kts | 86° |
| 2026-04-26 21:18 | -4.08332 | -39.58759 | 10038 ft | 353 kts | 85° |
| 2026-04-26 21:19 | -4.08142 | -39.56522 | 9871 ft | 296 kts | 84° |
| 2026-04-26 21:19 | -4.07965 | -39.54641 | 9748 ft | 251 kts | 84° |
| 2026-04-26 21:19 | -4.07710 | -39.52986 | 9346 ft | 229 kts | 76° |
| 2026-04-26 21:19 | -4.07352 | -39.51519 | 9118 ft | 204 kts | 75° |
| 2026-04-26 21:20 | -4.07031 | -39.50167 | 8925 ft | 192 kts | 75° |
| 2026-04-26 21:20 | -4.06718 | -39.48916 | 8896 ft | 178 kts | 74° |
| 2026-04-26 21:20 | -4.06401 | -39.47762 | 8805 ft | 166 kts | 71° |
| 2026-04-26 21:20 | -4.06056 | -39.46592 | 8750 ft | 189 kts | 72° |
| 2026-04-26 21:21 | -4.05641 | -39.45223 | 8849 ft | 221 kts | 70° |
| 2026-04-26 21:21 | -4.05120 | -39.43651 | 8972 ft | 262 kts | 70° |
| 2026-04-26 21:21 | -4.04514 | -39.41774 | 9226 ft | 306 kts | 71° |
| 2026-04-26 21:21 | -4.03780 | -39.39430 | 9523 ft | 392 kts | 71° |
| 2026-04-26 21:22 | -4.02892 | -39.36653 | 9894 ft | 421 kts | 71° |
| 2026-04-26 21:22 | -4.01942 | -39.33974 | 9047 ft | 396 kts | 67° |
| 2026-04-26 21:22 | -4.00980 | -39.31527 | 8948 ft | 364 kts | 68° |
| 2026-04-26 21:23 | -3.99459 | -39.27395 | 8258 ft | 261 kts | 69° |
| 2026-04-26 21:23 | -3.98876 | -39.25884 | 8088 ft | 204 kts | 59° |
| 2026-04-26 21:23 | -3.98234 | -39.24818 | 7897 ft | 154 kts | 54° |
| 2026-04-26 21:23 | -3.97751 | -39.23982 | 7430 ft | 127 kts | 55° |
| 2026-04-26 21:24 | -3.97343 | -39.23247 | 6770 ft | 115 kts | 58° |
| 2026-04-26 21:24 | -3.96984 | -39.22538 | 6065 ft | 112 kts | 56° |
| 2026-04-26 21:24 | -3.96445 | -39.21603 | 6168 ft | 206 kts | 55° |
| 2026-04-26 21:24 | -3.95601 | -39.20240 | 7116 ft | 238 kts | 55° |
| 2026-04-26 21:25 | -3.94677 | -39.18784 | 7292 ft | 255 kts | 53° |
| 2026-04-26 21:25 | -3.93700 | -39.17334 | 7286 ft | 265 kts | 53° |
| 2026-04-26 21:25 | -3.92583 | -39.15704 | 7273 ft | 276 kts | 53° |
| 2026-04-26 21:25 | -3.91476 | -39.14104 | 7169 ft | 286 kts | 53° |
| 2026-04-26 21:26 | -3.90322 | -39.12462 | 7074 ft | 294 kts | 55° |
| 2026-04-26 21:26 | -3.89034 | -39.10241 | 6698 ft | 526 kts | 59° |
| 2026-04-26 21:26 | -3.86852 | -39.06284 | 5828 ft | 699 kts | 60° |
| 2026-04-26 21:26 | -3.84476 | -39.01884 | 4363 ft | 709 kts | 61° |
| 2026-04-26 21:27 | -3.81988 | -38.97686 | 4385 ft | 695 kts | 58° |
| 2026-04-26 21:27 | -3.79442 | -38.93580 | 4417 ft | 691 kts | 57° |
| 2026-04-26 21:27 | -3.76911 | -38.89499 | 4425 ft | 689 kts | 57° |
| 2026-04-26 21:27 | -3.74407 | -38.85462 | 4438 ft | 671 kts | 57° |
| 2026-04-26 21:28 | -3.71964 | -38.81521 | 4106 ft | 664 kts | 58° |
| 2026-04-26 21:28 | -3.70008 | -38.77361 | 3863 ft | 656 kts | 77° |
| 2026-04-26 21:28 | -3.70339 | -38.72943 | 5111 ft | 632 kts | 105° |
| 2026-04-26 21:28 | -3.71524 | -38.69448 | 4078 ft | 462 kts | 112° |
| 2026-04-26 21:29 | -3.72825 | -38.66747 | 3304 ft | 428 kts | 118° |
| 2026-04-26 21:29 | -3.74247 | -38.64316 | 2326 ft | 389 kts | 120° |
| 2026-04-26 21:29 | -3.75594 | -38.62023 | 1272 ft | 373 kts | 120° |
| 2026-04-26 21:29 | -3.76728 | -38.59774 | 994 ft | 347 kts | 107° |
| 2026-04-26 21:30 | -3.77005 | -38.57698 | 1005 ft | 251 kts | 91° |
| 2026-04-26 21:30 | -3.77050 | -38.56174 | 440 ft | 190 kts | 94° |
| 2026-04-26 21:30 | -3.77185 | -38.54998 | 189 ft | 155 kts | 101° |
| 2026-04-26 21:30 | -3.77407 | -38.54084 | 89 ft | 110 kts | 105° |
| 2026-04-26 21:31 | -3.77473 | -38.53810 | 89 ft | 11 kts | 170° |
| 2026-04-26 21:31 | -3.77496 | -38.53753 | 89 ft | 9 kts | 105° |
| 2026-04-26 21:31 | -3.77517 | -38.53676 | 89 ft | 14 kts | 105° |
| 2026-04-26 21:31 | -3.77538 | -38.53567 | 89 ft | 16 kts | 76° |
| 2026-04-26 21:32 | -3.77500 | -38.53485 | 89 ft | 11 kts | 18° |
| 2026-04-26 21:32 | -3.77417 | -38.53470 | 89 ft | 4 kts | 259° |
| 2026-04-26 21:32 | -3.77407 | -38.53513 | 89 ft | 9 kts | 284° |
| 2026-04-26 21:32 | -3.77382 | -38.53538 | 89 ft | 9 kts | 148° |
| 2026-04-26 21:33 | -3.77382 | -38.53591 | 89 ft | 12 kts | 290° |
| 2026-04-26 21:33 | -3.77356 | -38.53676 | 89 ft | 9 kts | 284° |
| 2026-04-26 21:33 | -3.77310 | -38.53688 | 89 ft | 8 kts | 30° |
| 2026-04-26 21:33 | -3.77306 | -38.53661 | 89 ft | 0 kts | 114° |
| 2026-04-26 21:34 | -3.77306 | -38.53660 | 89 ft | 0 kts | 105° |
| 2026-04-26 21:35 | -3.77307 | -38.53660 | 89 ft | 0 kts | 105° |
| 2026-04-26 21:36 | -3.77307 | -38.53659 | 89 ft | 0 kts | 105° |
| 2026-04-26 21:39 | -3.77307 | -38.53658 | 89 ft | 0 kts | 105° |
| 2026-04-26 21:42 | -5.06438 | -42.82147 | 219 ft | 0 kts | 100° |